Time;durP1;ratioP1;P1;durP2;ratioP2;P2;SDS_P1;SDS_P2;PMS_P1;PMS_P2;Temp;Humidity;BMP_temperature;BMP_pressure;BME280_temperature;BME280_humidity;BME280_pressure;Samples;Min_cycle;Max_cycle;Signal;HPM_P1;HPM_P2
2022/08/09 00:00:11;;;;;;;;;;;;;;;;;;5097345;28;19912;-91
2022/08/09 00:02:37;;;;;;;;;;;;;;;;;;5119046;28;19923;-85
2022/08/09 00:05:02;;;;;;;;;;;;;;;;;;5106044;28;20016;-89
2022/08/09 00:07:28;;;;;;;;;;;;;;;;;;5097181;28;19919;-88
2022/08/09 00:09:53;;;;;;;;;;;;;;;;;;5096926;28;19916;-88
2022/08/09 00:12:18;;;;;;;;;;;;;;;;;;5097259;28;19919;-90
2022/08/09 00:14:44;;;;;;;;;;;;;;;;;;5096663;28;19916;-89
2022/08/09 00:17:09;;;;;;;;;;;;;;;;;;5096971;28;19961;-89
2022/08/09 00:19:34;;;;;;;;;;;;;;;;;;5095410;28;20010;-90
2022/08/09 00:22:00;;;;;;;;;;;;;;;;;;5095401;28;19916;-91
2022/08/09 00:24:25;;;;;;;;;;;;;;;;;;5102726;28;19961;-92
2022/08/09 00:26:50;;;;;;;;;;;;;;;;;;5099074;28;20420;-91
2022/08/09 00:29:16;;;;;;;;;;;;;;;;;;5096780;28;19973;-90
2022/08/09 00:31:41;;;;;;;;;;;;;;;;;;5111925;28;19912;-90
2022/08/09 00:34:06;;;;;;;;;;;;;;;;;;5112783;28;19916;-91
2022/08/09 00:36:32;;;;;;;;;;;;;;;;;;5097015;28;19916;-88
2022/08/09 00:38:57;;;;;;;;;;;;;;;;;;5114788;28;19916;-90
2022/08/09 00:41:22;;;;;;;;;;;;;;;;;;5099221;28;19923;-90
2022/08/09 00:43:49;;;;;;;;;;;;;;;;;;5099665;28;19915;-91
2022/08/09 00:46:15;;;;;;;;;;;;;;;;;;5121099;28;20234;-90
2022/08/09 00:48:40;;;;;;;;;;;;;;;;;;5112544;28;19931;-90
2022/08/09 00:51:06;;;;;;;;;;;;;;;;;;5095190;28;19956;-90
2022/08/09 00:53:32;;;;;;;;;;;;;;;;;;5096605;28;19916;-90
2022/08/09 00:55:57;;;;;;;;;;;;;;;;;;5112617;28;19923;-89
2022/08/09 00:58:23;;;;;;;;;;;;;;;;;;5096068;28;20322;-90
2022/08/09 01:00:49;;;;;;;;;;;;;;;;;;5112460;28;19962;-91
2022/08/09 01:03:15;;;;;;;;;;;;;;;;;;5102643;28;19920;-90
2022/08/09 01:05:42;;;;;;;;;;;;;;;;;;5100522;28;20288;-91
2022/08/09 01:08:17;;;;;;;;;;;;;;;;;;5112408;28;19945;-90
2022/08/09 01:11:01;;;;;;;;;;;;;;;;;;5097304;28;20002;-90
2022/08/09 01:13:35;;;;;;;;;;;;;;;;;;5097453;28;20326;-89
2022/08/09 01:16:01;;;;;;;;;;;;;;;;;;5095874;28;19951;-89
2022/08/09 01:18:28;;;;;;;;;;;;;;;;;;5094260;28;20354;-87
2022/08/09 01:21:08;;;;;;;;;;;;;;;;;;5095819;28;20246;-89
2022/08/09 01:23:36;;;;;;;;;;;;;;;;;;5099371;28;20014;-87
2022/08/09 01:26:20;;;;;;;;;;;;;;;;;;5099311;28;19940;-89
2022/08/09 01:28:46;;;;;;;;;;;;;;;;;;5111413;28;19916;-89
2022/08/09 01:31:14;;;;;;;;;;;;;;;;;;5095556;28;20274;-88
2022/08/09 01:33:39;;;;;;;;;;;;;;;;;;5111320;28;19916;-88
2022/08/09 01:36:06;;;;;;;;;;;;;;;;;;5110901;28;20271;-88
2022/08/09 01:38:33;;;;;;;;;;;;;;;;;;5111225;28;20050;-86
2022/08/09 01:41:03;;;;;;;;;;;;;;;;;;5110817;28;19923;-85
2022/08/09 01:43:30;;;;;;;;;;;;;;;;;;5110493;28;20247;-86
2022/08/09 01:45:55;;;;;;;;;;;;;;;;;;5119641;28;19924;-88
2022/08/09 01:48:21;;;;;;;;;;;;;;;;;;5095529;28;19923;-90
2022/08/09 01:50:47;;;;;;;;;;;;;;;;;;5110979;28;19938;-86
2022/08/09 01:53:12;;;;;;;;;;;;;;;;;;5095356;28;19916;-86
2022/08/09 01:55:38;;;;;;;;;;;;;;;;;;5110371;28;19924;-89
2022/08/09 01:58:03;;;;;;;;;;;;;;;;;;5095270;28;19920;-90
2022/08/09 02:00:28;;;;;;;;;;;;;;;;;;5093677;28;19916;-88
2022/08/09 02:02:53;;;;;;;;;;;;;;;;;;5094830;28;19931;-90
2022/08/09 02:05:20;;;;;;;;;;;;;;;;;;5115451;28;20330;-88
2022/08/09 02:08:05;;;;;;;;;;;;;;;;;;5101048;28;19916;-88
2022/08/09 02:10:31;;;;;;;;;;;;;;;;;;5110903;28;19962;-88
2022/08/09 02:13:00;;;;;;;;;;;;;;;;;;5110744;28;19912;-88
2022/08/09 02:15:25;;;;;;;;;;;;;;;;;;5095014;28;19923;-90
2022/08/09 02:17:51;;;;;;;;;;;;;;;;;;5094674;28;19916;-88
2022/08/09 02:20:16;;;;;;;;;;;;;;;;;;5094735;28;19920;-89
2022/08/09 02:22:42;;;;;;;;;;;;;;;;;;5110885;28;20337;-87
2022/08/09 02:25:20;;;;;;;;;;;;;;;;;;5094490;28;19923;-87
2022/08/09 02:27:50;;;;;;;;;;;;;;;;;;5122144;28;19920;-87
2022/08/09 02:30:15;;;;;;;;;;;;;;;;;;5111474;28;19916;-89
2022/08/09 02:32:42;;;;;;;;;;;;;;;;;;5110718;28;20231;-88
2022/08/09 02:35:08;;;;;;;;;;;;;;;;;;5094690;28;19928;-88
2022/08/09 02:37:34;;;;;;;;;;;;;;;;;;5110619;28;20316;-88
2022/08/09 02:40:00;;;;;;;;;;;;;;;;;;5093099;28;19952;-88
2022/08/09 02:42:26;;;;;;;;;;;;;;;;;;5094726;28;19950;-88
2022/08/09 02:44:55;;;;;;;;;;;;;;;;;;5110169;28;19944;-88
2022/08/09 02:47:20;;;;;;;;;;;;;;;;;;5094731;28;19916;-89
2022/08/09 02:49:59;;;;;;;;;;;;;;;;;;5115831;28;19950;-90
2022/08/09 02:52:33;;;;;;;;;;;;;;;;;;5110143;28;19952;-88
2022/08/09 02:54:58;;;;;;;;;;;;;;;;;;5096900;28;19916;-88
2022/08/09 02:57:24;;;;;;;;;;;;;;;;;;5114611;28;20337;-88
2022/08/09 02:59:49;;;;;;;;;;;;;;;;;;5114354;28;19912;-88
2022/08/09 03:02:15;;;;;;;;;;;;;;;;;;5114442;28;20334;-88
2022/08/09 03:04:41;;;;;;;;;;;;;;;;;;5098502;28;19927;-89
2022/08/09 03:07:06;;;;;;;;;;;;;;;;;;5100121;28;19908;-87
2022/08/09 03:09:32;;;;;;;;;;;;;;;;;;5103367;28;20342;-89
2022/08/09 03:11:57;;;;;;;;;;;;;;;;;;5098407;28;20332;-88
2022/08/09 03:14:22;;;;;;;;;;;;;;;;;;5113905;28;19923;-90
2022/08/09 03:16:48;;;;;;;;;;;;;;;;;;5097985;28;19923;-87
2022/08/09 03:19:13;;;;;;;;;;;;;;;;;;5114054;28;20281;-87
2022/08/09 03:21:39;;;;;;;;;;;;;;;;;;5113941;28;20245;-88
2022/08/09 03:24:04;;;;;;;;;;;;;;;;;;5114010;28;19988;-88
2022/08/09 03:26:30;;;;;;;;;;;;;;;;;;5113531;28;20011;-88
2022/08/09 03:28:58;;;;;;;;;;;;;;;;;;5119813;28;19916;-88
2022/08/09 03:31:23;;;;;;;;;;;;;;;;;;5118063;28;19923;-89
2022/08/09 03:33:48;;;;;;;;;;;;;;;;;;5113427;28;19916;-88
2022/08/09 03:36:13;;;;;;;;;;;;;;;;;;5096514;28;19930;-90
2022/08/09 03:38:40;;;;;;;;;;;;;;;;;;5114125;28;19916;-89
2022/08/09 03:41:05;;;;;;;;;;;;;;;;;;5097142;28;20006;-90
2022/08/09 03:43:30;;;;;;;;;;;;;;;;;;5097469;28;19916;-89
2022/08/09 03:45:56;;;;;;;;;;;;;;;;;;5097353;28;19923;-89
2022/08/09 03:48:22;;;;;;;;;;;;;;;;;;5097630;28;20292;-86
2022/08/09 03:50:47;;;;;;;;;;;;;;;;;;5104496;28;19927;-87
2022/08/09 03:53:12;;;;;;;;;;;;;;;;;;5097521;28;19923;-87
2022/08/09 03:55:38;;;;;;;;;;;;;;;;;;5113040;28;19916;-88
2022/08/09 03:58:03;;;;;;;;;;;;;;;;;;5113466;28;19917;-89
2022/08/09 04:00:28;;;;;;;;;;;;;;;;;;5113152;28;20326;-88
2022/08/09 04:02:54;;;;;;;;;;;;;;;;;;5097583;28;19946;-87
2022/08/09 04:05:19;;;;;;;;;;;;;;;;;;5112510;28;19916;-87
2022/08/09 04:07:46;;;;;;;;;;;;;;;;;;5112890;28;19939;-87
2022/08/09 04:10:12;;;;;;;;;;;;;;;;;;5099507;28;19916;-87
2022/08/09 04:12:41;;;;;;;;;;;;;;;;;;5102464;28;19926;-87
2022/08/09 04:15:07;;;;;;;;;;;;;;;;;;5097379;28;19920;-86
2022/08/09 04:17:32;;;;;;;;;;;;;;;;;;5112617;28;20234;-87
2022/08/09 04:19:57;;;;;;;;;;;;;;;;;;5097197;28;20322;-88
2022/08/09 04:22:23;;;;;;;;;;;;;;;;;;5096796;28;20387;-88
2022/08/09 04:24:48;;;;;;;;;;;;;;;;;;5096954;28;19916;-87
2022/08/09 04:27:13;;;;;;;;;;;;;;;;;;5096865;28;19916;-88
2022/08/09 04:29:38;;;;;;;;;;;;;;;;;;5096544;28;19950;-87
2022/08/09 04:32:04;;;;;;;;;;;;;;;;;;5108301;28;19920;-87
2022/08/09 04:34:32;;;;;;;;;;;;;;;;;;5113032;28;20246;-87
2022/08/09 04:36:57;;;;;;;;;;;;;;;;;;5095074;28;20352;-86
2022/08/09 04:39:23;;;;;;;;;;;;;;;;;;5096284;28;19916;-88
2022/08/09 04:41:48;;;;;;;;;;;;;;;;;;5096621;28;19959;-88
2022/08/09 04:44:13;;;;;;;;;;;;;;;;;;5096400;28;19977;-89
2022/08/09 04:46:39;;;;;;;;;;;;;;;;;;5096275;28;19916;-88
2022/08/09 04:49:04;;;;;;;;;;;;;;;;;;5095958;28;19912;-89
2022/08/09 04:51:30;;;;;;;;;;;;;;;;;;5099453;28;20002;-88
2022/08/09 04:53:55;;;;;;;;;;;;;;;;;;5107854;28;19916;-89
2022/08/09 04:56:20;;;;;;;;;;;;;;;;;;5097219;28;19916;-88
2022/08/09 04:58:46;;;;;;;;;;;;;;;;;;5112308;28;20291;-87
2022/08/09 05:01:11;;;;;;;;;;;;;;;;;;5095252;28;20334;-89
2022/08/09 05:03:36;;;;;;;;;;;;;;;;;;5111805;28;19916;-90
2022/08/09 05:06:06;;;;;;;;;;;;;;;;;;5095247;28;19916;-88
2022/08/09 05:08:33;;;;;;;;;;;;;;;;;;5095854;28;19916;-87
2022/08/09 05:10:58;;;;;;;;;;;;;;;;;;5097312;28;20321;-88
2022/08/09 05:13:24;;;;;;;;;;;;;;;;;;5108711;28;19914;-87
2022/08/09 05:15:49;;;;;;;;;;;;;;;;;;5099761;28;19924;-88
2022/08/09 05:18:15;;;;;;;;;;;;;;;;;;5095659;28;19916;-88
2022/08/09 05:20:40;;;;;;;;;;;;;;;;;;5096226;28;20240;-90
2022/08/09 05:23:05;;;;;;;;;;;;;;;;;;5096715;28;19917;-88
2022/08/09 05:25:31;;;;;;;;;;;;;;;;;;5096539;28;19981;-90
2022/08/09 05:27:56;;;;;;;;;;;;;;;;;;5095871;28;19951;-89
2022/08/09 05:30:23;;;;;;;;;;;;;;;;;;5097871;28;19963;-89
2022/08/09 05:32:49;;;;;;;;;;;;;;;;;;5097754;28;19912;-88
2022/08/09 05:35:14;;;;;;;;;;;;;;;;;;5109782;28;19920;-89
2022/08/09 05:37:42;;;;;;;;;;;;;;;;;;5098981;28;19915;-88
2022/08/09 05:40:07;;;;;;;;;;;;;;;;;;5103912;28;19935;-85
2022/08/09 05:42:33;;;;;;;;;;;;;;;;;;5118486;28;19908;-86
2022/08/09 05:44:58;;;;;;;;;;;;;;;;;;5117799;28;19924;-87
2022/08/09 05:47:24;;;;;;;;;;;;;;;;;;5119494;28;19920;-90
2022/08/09 05:49:50;;;;;;;;;;;;;;;;;;5095276;28;19916;-86
2022/08/09 05:52:17;;;;;;;;;;;;;;;;;;5110029;28;20147;-89
2022/08/09 05:54:42;;;;;;;;;;;;;;;;;;5108295;28;19936;-88
2022/08/09 05:57:08;;;;;;;;;;;;;;;;;;5105878;28;20330;-88
2022/08/09 05:59:33;;;;;;;;;;;;;;;;;;5095278;28;20243;-89
2022/08/09 06:01:58;;;;;;;;;;;;;;;;;;5095110;28;19916;-84
2022/08/09 06:04:24;;;;;;;;;;;;;;;;;;5094774;28;19916;-83
2022/08/09 06:06:49;;;;;;;;;;;;;;;;;;5094668;28;20352;-82
2022/08/09 06:09:14;;;;;;;;;;;;;;;;;;5094685;28;19922;-83
2022/08/09 06:11:40;;;;;;;;;;;;;;;;;;5094700;28;19927;-86
2022/08/09 06:14:05;;;;;;;;;;;;;;;;;;5094932;28;20265;-84
2022/08/09 06:16:30;;;;;;;;;;;;;;;;;;5100100;28;19974;-83
2022/08/09 06:18:55;;;;;;;;;;;;;;;;;;5093489;28;19981;-83
2022/08/09 06:21:21;;;;;;;;;;;;;;;;;;5094981;28;20379;-83
2022/08/09 06:23:47;;;;;;;;;;;;;;;;;;5110450;28;19916;-83
2022/08/09 06:26:15;;;;;;;;;;;;;;;;;;5094706;28;20322;-82
2022/08/09 06:28:40;;;;;;;;;;;;;;;;;;5094995;28;19916;-84
2022/08/09 06:31:06;;;;;;;;;;;;;;;;;;5114363;28;20299;-84
2022/08/09 06:33:31;;;;;;;;;;;;;;;;;;5098378;28;20341;-85
2022/08/09 06:35:56;;;;;;;;;;;;;;;;;;5102860;28;19966;-84
2022/08/09 06:38:21;;;;;;;;;;;;;;;;;;5101230;28;20006;-84
2022/08/09 06:40:47;;;;;;;;;;;;;;;;;;5098499;28;20049;-84
2022/08/09 06:43:12;;;;;;;;;;;;;;;;;;5114127;28;19963;-85
2022/08/09 06:45:38;;;;;;;;;;;;;;;;;;5097746;28;19927;-85
2022/08/09 06:48:03;;;;;;;;;;;;;;;;;;5114174;28;20327;-85
2022/08/09 06:50:30;;;;;;;;;;;;;;;;;;5098281;28;19920;-86
2022/08/09 06:52:55;;;;;;;;;;;;;;;;;;5098391;28;19917;-84
2022/08/09 06:55:20;;;;;;;;;;;;;;;;;;5114267;28;19916;-85
2022/08/09 06:57:46;;;;;;;;;;;;;;;;;;5107603;28;19916;-82
2022/08/09 07:00:11;;;;;;;;;;;;;;;;;;5098346;28;19923;-84
2022/08/09 07:02:36;;;;;;;;;;;;;;;;;;5096831;28;19973;-83
2022/08/09 07:05:02;;;;;;;;;;;;;;;;;;5098021;28;19916;-84
2022/08/09 07:07:28;;;;;;;;;;;;;;;;;;5098035;28;20006;-83
2022/08/09 07:09:53;;;;;;;;;;;;;;;;;;5113480;28;20261;-84
2022/08/09 07:12:18;;;;;;;;;;;;;;;;;;5098532;28;19916;-85
2022/08/09 07:14:44;;;;;;;;;;;;;;;;;;5096093;28;19916;-83
2022/08/09 07:17:09;;;;;;;;;;;;;;;;;;5099562;28;19916;-84
2022/08/09 07:19:35;;;;;;;;;;;;;;;;;;5103559;28;19916;-84
2022/08/09 07:22:00;;;;;;;;;;;;;;;;;;5097775;28;19970;-83
2022/08/09 07:24:26;;;;;;;;;;;;;;;;;;5113657;28;20003;-84
2022/08/09 07:26:51;;;;;;;;;;;;;;;;;;5113233;28;19917;-82
2022/08/09 07:29:17;;;;;;;;;;;;;;;;;;5095969;28;19916;-83
2022/08/09 07:31:42;;;;;;;;;;;;;;;;;;5097586;28;19981;-83
2022/08/09 07:34:07;;;;;;;;;;;;;;;;;;5097635;28;20285;-84
2022/08/09 07:36:33;;;;;;;;;;;;;;;;;;5098077;28;20254;-84
2022/08/09 07:38:58;;;;;;;;;;;;;;;;;;5115387;28;20334;-85
2022/08/09 07:41:24;;;;;;;;;;;;;;;;;;5096865;28;19960;-83
2022/08/09 07:43:49;;;;;;;;;;;;;;;;;;5112803;28;19916;-83
2022/08/09 07:46:14;;;;;;;;;;;;;;;;;;5113118;28;19920;-85
2022/08/09 07:48:40;;;;;;;;;;;;;;;;;;5096270;28;19923;-84
2022/08/09 07:51:05;;;;;;;;;;;;;;;;;;5112696;28;19962;-84
2022/08/09 07:53:31;;;;;;;;;;;;;;;;;;5113155;28;19916;-84
2022/08/09 07:55:56;;;;;;;;;;;;;;;;;;5096998;28;19923;-84
2022/08/09 07:58:22;;;;;;;;;;;;;;;;;;5096808;28;20344;-84
2022/08/09 08:00:48;;;;;;;;;;;;;;;;;;5103025;28;19902;-83
2022/08/09 08:03:13;;;;;;;;;;;;;;;;;;5099610;28;19916;-84
2022/08/09 08:05:39;;;;;;;;;;;;;;;;;;5096970;28;19920;-84
2022/08/09 08:08:04;;;;;;;;;;;;;;;;;;5097243;28;19919;-84
2022/08/09 08:10:31;;;;;;;;;;;;;;;;;;5095132;28;19916;-83
2022/08/09 08:12:56;;;;;;;;;;;;;;;;;;5096536;28;20358;-83
2022/08/09 08:15:21;;;;;;;;;;;;;;;;;;5112331;28;19955;-85
2022/08/09 08:17:50;;;;;;;;;;;;;;;;;;5096643;28;20311;-84
2022/08/09 08:20:15;;;;;;;;;;;;;;;;;;5111827;28;19915;-85
2022/08/09 08:22:40;;;;;;;;;;;;;;;;;;5107805;28;19988;-84
2022/08/09 08:25:06;;;;;;;;;;;;;;;;;;5096934;28;19917;-83
2022/08/09 08:27:32;;;;;;;;;;;;;;;;;;5096348;28;20187;-84
2022/08/09 08:29:57;;;;;;;;;;;;;;;;;;5096099;28;19916;-84
2022/08/09 08:32:23;;;;;;;;;;;;;;;;;;5096336;28;19912;-84
2022/08/09 08:34:48;;;;;;;;;;;;;;;;;;5096033;28;19916;-84
2022/08/09 08:37:13;;;;;;;;;;;;;;;;;;5096288;28;19916;-84
2022/08/09 08:39:39;;;;;;;;;;;;;;;;;;5096140;28;19916;-84
2022/08/09 08:42:04;;;;;;;;;;;;;;;;;;5111706;28;20329;-84
2022/08/09 08:44:29;;;;;;;;;;;;;;;;;;5118900;28;19949;-83
2022/08/09 08:46:56;;;;;;;;;;;;;;;;;;5098396;28;20003;-83
2022/08/09 08:49:21;;;;;;;;;;;;;;;;;;5095811;28;20329;-84
2022/08/09 08:51:47;;;;;;;;;;;;;;;;;;5095714;28;19939;-83
2022/08/09 08:54:13;;;;;;;;;;;;;;;;;;5111738;28;20357;-84
2022/08/09 08:56:39;;;;;;;;;;;;;;;;;;5111487;28;20007;-84
2022/08/09 08:59:05;;;;;;;;;;;;;;;;;;5095625;28;19969;-84
2022/08/09 09:01:31;;;;;;;;;;;;;;;;;;5096135;28;19917;-84
2022/08/09 09:03:57;;;;;;;;;;;;;;;;;;5103675;28;19939;-84
2022/08/09 09:06:22;;;;;;;;;;;;;;;;;;5114867;28;20242;-84
2022/08/09 09:08:47;;;;;;;;;;;;;;;;;;5095711;28;19916;-83
2022/08/09 09:11:13;;;;;;;;;;;;;;;;;;5095340;28;19916;-83
2022/08/09 09:13:38;;;;;;;;;;;;;;;;;;5111154;28;19922;-85
2022/08/09 09:16:04;;;;;;;;;;;;;;;;;;5095166;28;19970;-84
2022/08/09 09:18:29;;;;;;;;;;;;;;;;;;5095169;28;19923;-84
2022/08/09 09:20:55;;;;;;;;;;;;;;;;;;5095653;28;20310;-83
2022/08/09 09:23:40;;;;;;;;;;;;;;;;;;5095766;28;19916;-83
2022/08/09 09:26:06;;;;;;;;;;;;;;;;;;5104674;28;19916;-83
2022/08/09 09:28:32;;;;;;;;;;;;;;;;;;5096892;28;20325;-83
2022/08/09 09:30:58;;;;;;;;;;;;;;;;;;5095005;28;19923;-84
2022/08/09 09:33:31;;;;;;;;;;;;;;;;;;5095220;28;19916;-84
2022/08/09 09:35:57;;;;;;;;;;;;;;;;;;5110754;28;19917;-84
2022/08/09 09:38:35;;;;;;;;;;;;;;;;;;5095076;28;19923;-84
2022/08/09 09:41:01;;;;;;;;;;;;;;;;;;5110699;28;19916;-85
2022/08/09 09:43:26;;;;;;;;;;;;;;;;;;5110758;28;19923;-84
2022/08/09 09:45:51;;;;;;;;;;;;;;;;;;5094180;28;19921;-84
2022/08/09 09:48:17;;;;;;;;;;;;;;;;;;5101927;28;19938;-84
2022/08/09 09:50:43;;;;;;;;;;;;;;;;;;5096061;28;19923;-83
2022/08/09 09:53:12;;;;;;;;;;;;;;;;;;5095261;28;19916;-83
2022/08/09 09:55:49;;;;;;;;;;;;;;;;;;5110387;28;19917;-84
2022/08/09 09:58:14;;;;;;;;;;;;;;;;;;5094953;28;19916;-84
2022/08/09 10:00:44;;;;;;;;;;;;;;;;;;5094980;28;19919;-84
2022/08/09 10:03:09;;;;;;;;;;;;;;;;;;5094216;28;19938;-84
2022/08/09 10:05:34;;;;;;;;;;;;;;;;;;5094681;28;19912;-84
2022/08/09 10:08:03;;;;;;;;;;;;;;;;;;5112276;28;19917;-84
2022/08/09 10:10:29;;;;;;;;;;;;;;;;;;5099975;28;19919;-83
2022/08/09 10:12:54;;;;;;;;;;;;;;;;;;5093755;28;19916;-82
2022/08/09 10:15:20;;;;;;;;;;;;;;;;;;5110054;28;19943;-84
2022/08/09 10:17:46;;;;;;;;;;;;;;;;;;5094580;28;19945;-82
2022/08/09 10:20:18;;;;;;;;;;;;;;;;;;5094538;28;19922;-83
2022/08/09 10:22:44;;;;;;;;;;;;;;;;;;5094363;28;19916;-83
2022/08/09 10:25:09;;;;;;;;;;;;;;;;;;5110476;28;20254;-82
2022/08/09 10:27:35;;;;;;;;;;;;;;;;;;5094512;28;20156;-82
2022/08/09 10:30:01;;;;;;;;;;;;;;;;;;5096533;28;19923;-84
2022/08/09 10:32:27;;;;;;;;;;;;;;;;;;5096685;28;19916;-84
2022/08/09 10:34:53;;;;;;;;;;;;;;;;;;5110208;28;19916;-82
2022/08/09 10:37:18;;;;;;;;;;;;;;;;;;5110008;28;20057;-82
2022/08/09 10:39:44;;;;;;;;;;;;;;;;;;5094015;28;19981;-82
2022/08/09 10:42:09;;;;;;;;;;;;;;;;;;5094124;28;19916;-82
2022/08/09 10:44:34;;;;;;;;;;;;;;;;;;5094188;28;19994;-82
2022/08/09 10:47:14;;;;;;;;;;;;;;;;;;5092979;28;20007;-82
2022/08/09 10:49:51;;;;;;;;;;;;;;;;;;5092961;28;19920;-83
2022/08/09 10:52:25;;;;;;;;;;;;;;;;;;5114875;28;19923;-82
2022/08/09 10:54:52;;;;;;;;;;;;;;;;;;5115671;28;19963;-83
2022/08/09 10:57:17;;;;;;;;;;;;;;;;;;5110008;28;19962;-82
2022/08/09 10:59:44;;;;;;;;;;;;;;;;;;5110145;28;20366;-82
2022/08/09 11:02:14;;;;;;;;;;;;;;;;;;5094079;28;19919;-82
2022/08/09 11:04:39;;;;;;;;;;;;;;;;;;5109733;28;19916;-82
2022/08/09 11:07:04;;;;;;;;;;;;;;;;;;5109355;28;19916;-80
2022/08/09 11:09:42;;;;;;;;;;;;;;;;;;5094075;28;19927;-81
2022/08/09 11:12:13;;;;;;;;;;;;;;;;;;5104356;28;19920;-82
2022/08/09 11:14:47;;;;;;;;;;;;;;;;;;5114227;28;19928;-81
2022/08/09 11:17:12;;;;;;;;;;;;;;;;;;5097499;28;19959;-83
2022/08/09 11:19:54;;;;;;;;;;;;;;;;;;5097921;28;19923;-82
2022/08/09 11:22:20;;;;;;;;;;;;;;;;;;5113703;28;20319;-82
2022/08/09 11:25:04;;;;;;;;;;;;;;;;;;5097691;28;19981;-81
2022/08/09 11:27:30;;;;;;;;;;;;;;;;;;5097606;28;19965;-84
2022/08/09 11:29:56;;;;;;;;;;;;;;;;;;5097169;28;19920;-87
2022/08/09 11:32:40;;;;;;;;;;;;;;;;;;5098956;28;19916;-86
2022/08/09 11:35:19;;;;;;;;;;;;;;;;;;5107617;28;19920;-85
2022/08/09 11:37:45;;;;;;;;;;;;;;;;;;5113368;28;19941;-91
2022/08/09 11:40:11;;;;;;;;;;;;;;;;;;5096714;28;19919;-86
2022/08/09 11:42:37;;;;;;;;;;;;;;;;;;5113351;28;19920;-87
2022/08/09 11:45:02;;;;;;;;;;;;;;;;;;5097370;28;19926;-85
2022/08/09 11:47:43;;;;;;;;;;;;;;;;;;5113063;28;19920;-87
2022/08/09 11:50:08;;;;;;;;;;;;;;;;;;5121433;28;19939;-86
2022/08/09 11:52:34;;;;;;;;;;;;;;;;;;5128447;28;19904;-88
2022/08/09 11:55:18;;;;;;;;;;;;;;;;;;5129072;28;20009;-83
2022/08/09 11:57:44;;;;;;;;;;;;;;;;;;5119217;28;20326;-86
2022/08/09 12:00:09;;;;;;;;;;;;;;;;;;5112840;28;19973;-89
2022/08/09 12:02:37;;;;;;;;;;;;;;;;;;5113013;28;19916;-88
2022/08/09 12:05:02;;;;;;;;;;;;;;;;;;5112748;28;19916;-88
2022/08/09 12:07:28;;;;;;;;;;;;;;;;;;5112717;28;20265;-85
2022/08/09 12:09:53;;;;;;;;;;;;;;;;;;5095710;28;19923;-85
2022/08/09 12:12:18;;;;;;;;;;;;;;;;;;5112400;28;20352;-85
2022/08/09 12:14:44;;;;;;;;;;;;;;;;;;5101904;28;19970;-86
2022/08/09 12:17:13;;;;;;;;;;;;;;;;;;5103851;28;19920;-86
2022/08/09 12:19:38;;;;;;;;;;;;;;;;;;5096532;28;19916;-89
2022/08/09 12:22:04;;;;;;;;;;;;;;;;;;5097314;28;20365;-88
2022/08/09 12:24:29;;;;;;;;;;;;;;;;;;5097194;28;19920;-85
2022/08/09 12:26:55;;;;;;;;;;;;;;;;;;5096125;28;19923;-88
2022/08/09 12:29:23;;;;;;;;;;;;;;;;;;5096659;28;20253;-87
2022/08/09 12:31:48;;;;;;;;;;;;;;;;;;5112586;28;19922;-87
2022/08/09 12:34:14;;;;;;;;;;;;;;;;;;5111931;28;19916;-87
2022/08/09 12:36:52;;;;;;;;;;;;;;;;;;5124694;28;19908;-89
2022/08/09 12:39:17;;;;;;;;;;;;;;;;;;5115353;28;20257;-87
2022/08/09 12:41:42;;;;;;;;;;;;;;;;;;5112308;28;19912;-86
2022/08/09 12:44:08;;;;;;;;;;;;;;;;;;5096344;28;20370;-88
2022/08/09 12:46:33;;;;;;;;;;;;;;;;;;5112198;28;20418;-86
2022/08/09 12:48:58;;;;;;;;;;;;;;;;;;5096136;28;19916;-86
2022/08/09 12:51:24;;;;;;;;;;;;;;;;;;5096873;28;20318;-88
2022/08/09 12:53:56;;;;;;;;;;;;;;;;;;5097094;28;19938;-85
2022/08/09 12:56:21;;;;;;;;;;;;;;;;;;5117044;28;19924;-84
2022/08/09 12:59:22;;;;;;;;;;;;;;;;;;5099661;28;19920;-85
2022/08/09 13:02:00;;;;;;;;;;;;;;;;;;5033725;28;19944;-88
2022/08/09 13:04:26;;;;;;;;;;;;;;;;;;5088103;28;19916;-88
2022/08/09 13:06:51;;;;;;;;;;;;;;;;;;5096041;28;19981;-86
2022/08/09 13:09:19;;;;;;;;;;;;;;;;;;5111815;28;19919;-86
2022/08/09 13:11:46;;;;;;;;;;;;;;;;;;5111408;28;20328;-87
2022/08/09 13:14:15;;;;;;;;;;;;;;;;;;5096021;28;19912;-85
2022/08/09 13:16:44;;;;;;;;;;;;;;;;;;5111091;28;19985;-86
2022/08/09 13:19:10;;;;;;;;;;;;;;;;;;5098729;28;20235;-86
2022/08/09 13:21:35;;;;;;;;;;;;;;;;;;5111686;28;19923;-87
2022/08/09 13:24:07;;;;;;;;;;;;;;;;;;5095693;28;19916;-88
2022/08/09 13:26:40;;;;;;;;;;;;;;;;;;5095288;28;20010;-90
2022/08/09 13:29:13;;;;;;;;;;;;;;;;;;5095627;28;20230;-87
2022/08/09 13:31:57;;;;;;;;;;;;;;;;;;5095476;28;19923;-91
2022/08/09 13:34:26;;;;;;;;;;;;;;;;;;5095533;28;19916;-89
2022/08/09 13:36:51;;;;;;;;;;;;;;;;;;5095536;28;19916;-87
2022/08/09 13:39:17;;;;;;;;;;;;;;;;;;5116654;28;19915;-85
2022/08/09 13:41:42;;;;;;;;;;;;;;;;;;5095608;28;19973;-88
2022/08/09 13:44:07;;;;;;;;;;;;;;;;;;5095596;28;19920;-88
2022/08/09 13:46:33;;;;;;;;;;;;;;;;;;5110615;28;19927;-86
2022/08/09 13:48:58;;;;;;;;;;;;;;;;;;5095314;28;19912;-86
2022/08/09 13:51:23;;;;;;;;;;;;;;;;;;5095375;28;19916;-87
2022/08/09 13:53:49;;;;;;;;;;;;;;;;;;5094962;28;20230;-86
2022/08/09 13:56:14;;;;;;;;;;;;;;;;;;5095432;28;20344;-88
2022/08/09 13:58:39;;;;;;;;;;;;;;;;;;5112801;28;19916;-87
2022/08/09 14:01:05;;;;;;;;;;;;;;;;;;5107452;28;19939;-88
2022/08/09 14:03:30;;;;;;;;;;;;;;;;;;5095051;28;19923;-87
2022/08/09 14:05:57;;;;;;;;;;;;;;;;;;5095018;28;19956;-87
2022/08/09 14:08:23;;;;;;;;;;;;;;;;;;5095043;28;19916;-88
2022/08/09 14:10:49;;;;;;;;;;;;;;;;;;5110627;28;20010;-87
2022/08/09 14:13:14;;;;;;;;;;;;;;;;;;5093625;28;19916;-86
2022/08/09 14:15:39;;;;;;;;;;;;;;;;;;5110309;28;19916;-88
2022/08/09 14:18:05;;;;;;;;;;;;;;;;;;5095110;28;19978;-87
2022/08/09 14:20:30;;;;;;;;;;;;;;;;;;5100208;28;20337;-86
2022/08/09 14:22:55;;;;;;;;;;;;;;;;;;5097514;28;19981;-87
2022/08/09 14:25:21;;;;;;;;;;;;;;;;;;5095069;28;20325;-90
2022/08/09 14:27:46;;;;;;;;;;;;;;;;;;5094919;28;20321;-86
2022/08/09 14:30:12;;;;;;;;;;;;;;;;;;5094753;28;20375;-90
2022/08/09 14:32:37;;;;;;;;;;;;;;;;;;5110369;28;20362;-87
2022/08/09 14:35:03;;;;;;;;;;;;;;;;;;5094514;28;19916;-88
2022/08/09 14:37:28;;;;;;;;;;;;;;;;;;5094843;28;19985;-85
2022/08/09 14:39:54;;;;;;;;;;;;;;;;;;5094838;28;19916;-88
2022/08/09 14:42:19;;;;;;;;;;;;;;;;;;5103256;28;20344;-86
2022/08/09 14:44:44;;;;;;;;;;;;;;;;;;5110857;28;19920;-85
2022/08/09 14:47:10;;;;;;;;;;;;;;;;;;5093332;28;20288;-88
2022/08/09 14:49:35;;;;;;;;;;;;;;;;;;5095286;28;20346;-87
2022/08/09 14:52:00;;;;;;;;;;;;;;;;;;5098579;28;19916;-86
2022/08/09 14:54:26;;;;;;;;;;;;;;;;;;5098677;28;19916;-89
2022/08/09 14:56:51;;;;;;;;;;;;;;;;;;5098788;28;19927;-87
2022/08/09 14:59:17;;;;;;;;;;;;;;;;;;5098070;28;19973;-89
2022/08/09 15:01:42;;;;;;;;;;;;;;;;;;5101913;28;19929;-89
2022/08/09 15:04:08;;;;;;;;;;;;;;;;;;5122244;28;20011;-88
2022/08/09 15:06:33;;;;;;;;;;;;;;;;;;5099295;28;20002;-85
2022/08/09 15:08:58;;;;;;;;;;;;;;;;;;5098834;28;19916;-90
2022/08/09 15:11:23;;;;;;;;;;;;;;;;;;5114048;28;19916;-87
2022/08/09 15:13:49;;;;;;;;;;;;;;;;;;5097949;28;20705;-88
2022/08/09 15:16:14;;;;;;;;;;;;;;;;;;5097952;28;19937;-88
2022/08/09 15:18:40;;;;;;;;;;;;;;;;;;5098242;28;20006;-89
2022/08/09 15:21:05;;;;;;;;;;;;;;;;;;5098208;28;20168;-87
2022/08/09 15:23:30;;;;;;;;;;;;;;;;;;5103712;28;19904;-85
2022/08/09 15:25:57;;;;;;;;;;;;;;;;;;5101477;28;19916;-87
2022/08/09 15:28:22;;;;;;;;;;;;;;;;;;5098049;28;20421;-88
2022/08/09 15:30:47;;;;;;;;;;;;;;;;;;5098023;28;19987;-88
2022/08/09 15:33:13;;;;;;;;;;;;;;;;;;5098335;28;20349;-87
2022/08/09 15:35:38;;;;;;;;;;;;;;;;;;5097528;28;20334;-87
2022/08/09 15:38:03;;;;;;;;;;;;;;;;;;5097993;28;19916;-89
2022/08/09 15:40:28;;;;;;;;;;;;;;;;;;5097856;28;20012;-87
2022/08/09 15:42:54;;;;;;;;;;;;;;;;;;5097703;28;19916;-87
2022/08/09 15:45:19;;;;;;;;;;;;;;;;;;5107614;28;19940;-87
2022/08/09 15:47:45;;;;;;;;;;;;;;;;;;5096817;28;19916;-87
2022/08/09 15:50:11;;;;;;;;;;;;;;;;;;5097791;28;19920;-88
2022/08/09 15:52:37;;;;;;;;;;;;;;;;;;5113605;28;19916;-88
2022/08/09 15:55:03;;;;;;;;;;;;;;;;;;5096461;28;19977;-88
2022/08/09 15:57:28;;;;;;;;;;;;;;;;;;5097279;28;19916;-88
2022/08/09 15:59:54;;;;;;;;;;;;;;;;;;5113342;28;19923;-89
2022/08/09 16:02:19;;;;;;;;;;;;;;;;;;5112226;28;19954;-87
2022/08/09 16:04:44;;;;;;;;;;;;;;;;;;5114923;28;19917;-88
2022/08/09 16:07:10;;;;;;;;;;;;;;;;;;5120491;28;19920;-87
2022/08/09 16:09:35;;;;;;;;;;;;;;;;;;5097388;28;19916;-88
2022/08/09 16:12:00;;;;;;;;;;;;;;;;;;5096776;28;19916;-88
2022/08/09 16:14:26;;;;;;;;;;;;;;;;;;5096908;28;19922;-88
2022/08/09 16:16:51;;;;;;;;;;;;;;;;;;5097104;28;20214;-88
2022/08/09 16:19:16;;;;;;;;;;;;;;;;;;5097103;28;19916;-87
2022/08/09 16:21:42;;;;;;;;;;;;;;;;;;5113859;28;20377;-89
2022/08/09 16:24:08;;;;;;;;;;;;;;;;;;5097209;28;19916;-87
2022/08/09 16:26:33;;;;;;;;;;;;;;;;;;5102458;28;19971;-87
2022/08/09 16:29:01;;;;;;;;;;;;;;;;;;5116333;28;20254;-90
2022/08/09 16:31:27;;;;;;;;;;;;;;;;;;5112329;28;20341;-87
2022/08/09 16:33:52;;;;;;;;;;;;;;;;;;5096850;28;19920;-88
2022/08/09 16:36:18;;;;;;;;;;;;;;;;;;5096306;28;20076;-88
2022/08/09 16:38:43;;;;;;;;;;;;;;;;;;5095515;28;20386;-88
2022/08/09 16:41:09;;;;;;;;;;;;;;;;;;5096563;28;19922;-88